sensor_id;sensor_type;location;lat;lon;timestamp;temperature;humidity
19496;DHT22;9888;48.606;9.630;2022-11-11T00:01:12;0.90;99.90
19496;DHT22;9888;48.606;9.630;2022-11-11T00:03:41;0.90;99.90
19496;DHT22;9888;48.606;9.630;2022-11-11T00:06:13;0.90;99.90
19496;DHT22;9888;48.606;9.630;2022-11-11T00:08:41;0.90;99.90
19496;DHT22;9888;48.606;9.630;2022-11-11T00:11:11;0.90;99.90
19496;DHT22;9888;48.606;9.630;2022-11-11T00:13:39;0.90;99.90
19496;DHT22;9888;48.606;9.630;2022-11-11T00:16:26;0.90;99.90
19496;DHT22;9888;48.606;9.630;2022-11-11T00:19:12;0.90;99.90
19496;DHT22;9888;48.606;9.630;2022-11-11T00:21:57;0.90;99.90
19496;DHT22;9888;48.606;9.630;2022-11-11T00:24:42;0.80;99.90
19496;DHT22;9888;48.606;9.630;2022-11-11T00:27:28;0.80;99.90
19496;DHT22;9888;48.606;9.630;2022-11-11T00:29:56;0.90;99.90
19496;DHT22;9888;48.606;9.630;2022-11-11T00:32:23;0.90;99.90
19496;DHT22;9888;48.606;9.630;2022-11-11T00:34:54;1.00;99.90
19496;DHT22;9888;48.606;9.630;2022-11-11T00:37:40;1.00;99.90
19496;DHT22;9888;48.606;9.630;2022-11-11T00:40:10;1.00;99.90
19496;DHT22;9888;48.606;9.630;2022-11-11T00:42:37;0.90;99.90
19496;DHT22;9888;48.606;9.630;2022-11-11T00:45:06;0.80;99.90
19496;DHT22;9888;48.606;9.630;2022-11-11T00:47:35;0.90;99.90
19496;DHT22;9888;48.606;9.630;2022-11-11T00:50:26;0.90;99.90
19496;DHT22;9888;48.606;9.630;2022-11-11T00:53:17;1.00;99.90
19496;DHT22;9888;48.606;9.630;2022-11-11T00:55:45;1.00;99.90
19496;DHT22;9888;48.606;9.630;2022-11-11T00:58:12;0.90;99.90
19496;DHT22;9888;48.606;9.630;2022-11-11T01:00:39;1.00;99.90
19496;DHT22;9888;48.606;9.630;2022-11-11T01:03:06;1.00;99.90
19496;DHT22;9888;48.606;9.630;2022-11-11T01:05:33;0.90;99.90
19496;DHT22;9888;48.606;9.630;2022-11-11T01:08:00;1.00;99.90
19496;DHT22;9888;48.606;9.630;2022-11-11T01:10:28;1.10;99.90
19496;DHT22;9888;48.606;9.630;2022-11-11T01:13:05;1.10;99.90
19496;DHT22;9888;48.606;9.630;2022-11-11T01:15:39;1.00;99.90
19496;DHT22;9888;48.606;9.630;2022-11-11T01:18:07;0.90;99.90
19496;DHT22;9888;48.606;9.630;2022-11-11T01:20:35;0.80;99.90
19496;DHT22;9888;48.606;9.630;2022-11-11T01:23:03;0.90;99.90
19496;DHT22;9888;48.606;9.630;2022-11-11T01:25:35;1.00;99.90
19496;DHT22;9888;48.606;9.630;2022-11-11T01:28:03;1.00;99.90
19496;DHT22;9888;48.606;9.630;2022-11-11T01:30:33;1.10;99.90
19496;DHT22;9888;48.606;9.630;2022-11-11T01:33:02;1.00;99.90
19496;DHT22;9888;48.606;9.630;2022-11-11T01:35:29;1.00;99.90
19496;DHT22;9888;48.606;9.630;2022-11-11T01:37:57;1.00;99.90
19496;DHT22;9888;48.606;9.630;2022-11-11T01:40:25;1.00;99.90
19496;DHT22;9888;48.606;9.630;2022-11-11T01:45:52;0.90;99.90
19496;DHT22;9888;48.606;9.630;2022-11-11T01:48:38;1.00;99.90
19496;DHT22;9888;48.606;9.630;2022-11-11T01:51:46;0.90;99.90
19496;DHT22;9888;48.606;9.630;2022-11-11T01:54:45;0.90;99.90
19496;DHT22;9888;48.606;9.630;2022-11-11T01:57:24;1.00;99.90
19496;DHT22;9888;48.606;9.630;2022-11-11T02:00:00;1.10;99.90
19496;DHT22;9888;48.606;9.630;2022-11-11T02:05:03;0.90;99.90
19496;DHT22;9888;48.606;9.630;2022-11-11T02:07:49;0.90;99.90
19496;DHT22;9888;48.606;9.630;2022-11-11T02:10:21;1.10;99.90
19496;DHT22;9888;48.606;9.630;2022-11-11T02:12:49;1.10;99.90
19496;DHT22;9888;48.606;9.630;2022-11-11T02:15:35;1.00;99.90
19496;DHT22;9888;48.606;9.630;2022-11-11T02:18:04;1.10;99.90
19496;DHT22;9888;48.606;9.630;2022-11-11T02:20:39;1.10;99.90
19496;DHT22;9888;48.606;9.630;2022-11-11T02:25:38;0.90;99.90
19496;DHT22;9888;48.606;9.630;2022-11-11T02:28:07;1.00;99.90
19496;DHT22;9888;48.606;9.630;2022-11-11T02:30:36;1.00;99.90
19496;DHT22;9888;48.606;9.630;2022-11-11T02:33:03;1.00;99.90
19496;DHT22;9888;48.606;9.630;2022-11-11T02:35:35;0.90;99.90
19496;DHT22;9888;48.606;9.630;2022-11-11T02:38:05;0.90;99.90
19496;DHT22;9888;48.606;9.630;2022-11-11T02:40:42;0.90;99.90
19496;DHT22;9888;48.606;9.630;2022-11-11T02:43:31;0.90;99.90
19496;DHT22;9888;48.606;9.630;2022-11-11T02:46:00;1.00;99.90
19496;DHT22;9888;48.606;9.630;2022-11-11T02:48:28;1.10;99.90
19496;DHT22;9888;48.606;9.630;2022-11-11T02:50:55;1.10;99.90
19496;DHT22;9888;48.606;9.630;2022-11-11T02:53:22;1.10;99.90
19496;DHT22;9888;48.606;9.630;2022-11-11T02:55:50;1.00;99.90
19496;DHT22;9888;48.606;9.630;2022-11-11T02:58:17;0.90;99.90
19496;DHT22;9888;48.606;9.630;2022-11-11T03:00:45;0.80;99.90
19496;DHT22;9888;48.606;9.630;2022-11-11T03:03:13;0.80;99.90
19496;DHT22;9888;48.606;9.630;2022-11-11T03:05:46;0.80;99.90
19496;DHT22;9888;48.606;9.630;2022-11-11T03:08:14;0.90;99.90
19496;DHT22;9888;48.606;9.630;2022-11-11T03:10:43;1.10;99.90
19496;DHT22;9888;48.606;9.630;2022-11-11T03:13:11;1.10;99.90
19496;DHT22;9888;48.606;9.630;2022-11-11T03:15:39;1.10;99.90
19496;DHT22;9888;48.606;9.630;2022-11-11T03:18:06;1.10;99.90
19496;DHT22;9888;48.606;9.630;2022-11-11T03:20:34;1.10;99.90
19496;DHT22;9888;48.606;9.630;2022-11-11T03:23:22;1.10;99.90
19496;DHT22;9888;48.606;9.630;2022-11-11T03:25:49;1.10;99.90
19496;DHT22;9888;48.606;9.630;2022-11-11T03:28:18;1.00;99.90
19496;DHT22;9888;48.606;9.630;2022-11-11T03:30:50;1.00;99.90
19496;DHT22;9888;48.606;9.630;2022-11-11T03:33:19;1.00;99.90
19496;DHT22;9888;48.606;9.630;2022-11-11T03:35:47;1.00;99.90
19496;DHT22;9888;48.606;9.630;2022-11-11T03:38:15;1.00;99.90
19496;DHT22;9888;48.606;9.630;2022-11-11T03:40:51;1.00;99.90
19496;DHT22;9888;48.606;9.630;2022-11-11T03:43:20;0.90;99.90
19496;DHT22;9888;48.606;9.630;2022-11-11T03:45:47;0.90;99.90
19496;DHT22;9888;48.606;9.630;2022-11-11T03:51:29;1.00;99.90
19496;DHT22;9888;48.606;9.630;2022-11-11T03:53:59;1.00;99.90
19496;DHT22;9888;48.606;9.630;2022-11-11T03:56:34;1.00;99.90
19496;DHT22;9888;48.606;9.630;2022-11-11T03:59:02;1.10;99.90
19496;DHT22;9888;48.606;9.630;2022-11-11T04:01:30;1.10;99.90
19496;DHT22;9888;48.606;9.630;2022-11-11T04:04:16;1.10;99.90
19496;DHT22;9888;48.606;9.630;2022-11-11T04:07:02;1.20;99.90
19496;DHT22;9888;48.606;9.630;2022-11-11T04:09:48;1.20;99.90
19496;DHT22;9888;48.606;9.630;2022-11-11T04:12:35;1.10;99.90
19496;DHT22;9888;48.606;9.630;2022-11-11T04:15:23;1.10;99.90
19496;DHT22;9888;48.606;9.630;2022-11-11T04:18:11;1.10;99.90
19496;DHT22;9888;48.606;9.630;2022-11-11T04:20:43;1.10;99.90
19496;DHT22;9888;48.606;9.630;2022-11-11T04:23:32;1.10;99.90
19496;DHT22;9888;48.606;9.630;2022-11-11T04:26:00;1.00;99.90
19496;DHT22;9888;48.606;9.630;2022-11-11T04:28:36;1.00;99.90
19496;DHT22;9888;48.606;9.630;2022-11-11T04:31:23;1.10;99.90
19496;DHT22;9888;48.606;9.630;2022-11-11T04:33:52;1.00;99.90
19496;DHT22;9888;48.606;9.630;2022-11-11T04:36:23;1.00;99.90
19496;DHT22;9888;48.606;9.630;2022-11-11T04:38:54;1.10;99.90
19496;DHT22;9888;48.606;9.630;2022-11-11T04:41:40;1.10;99.90
19496;DHT22;9888;48.606;9.630;2022-11-11T04:44:10;1.10;99.90
19496;DHT22;9888;48.606;9.630;2022-11-11T04:46:57;1.10;99.90
19496;DHT22;9888;48.606;9.630;2022-11-11T04:49:26;1.10;99.90
19496;DHT22;9888;48.606;9.630;2022-11-11T04:51:54;1.10;99.90
19496;DHT22;9888;48.606;9.630;2022-11-11T04:54:40;1.10;99.90
19496;DHT22;9888;48.606;9.630;2022-11-11T04:57:27;1.10;99.90
19496;DHT22;9888;48.606;9.630;2022-11-11T04:59:54;1.10;99.90
19496;DHT22;9888;48.606;9.630;2022-11-11T05:02:22;1.10;99.90
19496;DHT22;9888;48.606;9.630;2022-11-11T05:05:07;1.00;99.90
19496;DHT22;9888;48.606;9.630;2022-11-11T05:07:35;1.00;99.90
19496;DHT22;9888;48.606;9.630;2022-11-11T05:10:20;1.10;99.90
19496;DHT22;9888;48.606;9.630;2022-11-11T05:12:58;1.00;99.90
19496;DHT22;9888;48.606;9.630;2022-11-11T05:15:44;1.00;99.90
19496;DHT22;9888;48.606;9.630;2022-11-11T05:18:30;1.00;99.90
19496;DHT22;9888;48.606;9.630;2022-11-11T05:21:25;0.90;99.90
19496;DHT22;9888;48.606;9.630;2022-11-11T05:23:54;1.00;99.90
19496;DHT22;9888;48.606;9.630;2022-11-11T05:26:39;1.00;99.90
19496;DHT22;9888;48.606;9.630;2022-11-11T05:29:06;1.00;99.90
19496;DHT22;9888;48.606;9.630;2022-11-11T05:31:35;1.10;99.90
19496;DHT22;9888;48.606;9.630;2022-11-11T05:34:03;1.10;99.90
19496;DHT22;9888;48.606;9.630;2022-11-11T05:36:33;1.00;99.90
19496;DHT22;9888;48.606;9.630;2022-11-11T05:39:00;1.00;99.90
19496;DHT22;9888;48.606;9.630;2022-11-11T05:41:27;1.00;99.90
19496;DHT22;9888;48.606;9.630;2022-11-11T05:43:55;1.20;99.90
19496;DHT22;9888;48.606;9.630;2022-11-11T05:46:23;1.20;99.90
19496;DHT22;9888;48.606;9.630;2022-11-11T05:48:52;1.20;99.90
19496;DHT22;9888;48.606;9.630;2022-11-11T05:51:39;1.20;99.90
19496;DHT22;9888;48.606;9.630;2022-11-11T05:54:09;1.20;99.90
19496;DHT22;9888;48.606;9.630;2022-11-11T05:56:37;1.20;99.90
19496;DHT22;9888;48.606;9.630;2022-11-11T05:59:06;1.10;99.90
19496;DHT22;9888;48.606;9.630;2022-11-11T06:01:34;1.10;99.90
19496;DHT22;9888;48.606;9.630;2022-11-11T06:04:02;1.20;99.90
19496;DHT22;9888;48.606;9.630;2022-11-11T06:06:30;1.10;99.90
19496;DHT22;9888;48.606;9.630;2022-11-11T06:08:57;1.20;99.90
19496;DHT22;9888;48.606;9.630;2022-11-11T06:11:25;1.20;99.90
19496;DHT22;9888;48.606;9.630;2022-11-11T06:14:06;1.20;99.90
19496;DHT22;9888;48.606;9.630;2022-11-11T06:16:34;1.30;99.90
19496;DHT22;9888;48.606;9.630;2022-11-11T06:19:01;1.20;99.90
19496;DHT22;9888;48.606;9.630;2022-11-11T06:21:30;1.20;99.90
19496;DHT22;9888;48.606;9.630;2022-11-11T06:24:18;1.20;99.90
19496;DHT22;9888;48.606;9.630;2022-11-11T06:26:45;1.20;99.90
19496;DHT22;9888;48.606;9.630;2022-11-11T06:29:13;1.10;99.90
19496;DHT22;9888;48.606;9.630;2022-11-11T06:31:40;1.10;99.90
19496;DHT22;9888;48.606;9.630;2022-11-11T06:34:09;1.10;99.90
19496;DHT22;9888;48.606;9.630;2022-11-11T06:36:42;1.20;99.90
19496;DHT22;9888;48.606;9.630;2022-11-11T06:39:10;1.20;99.90
19496;DHT22;9888;48.606;9.630;2022-11-11T06:41:37;1.30;99.90
19496;DHT22;9888;48.606;9.630;2022-11-11T06:44:05;1.40;99.90
19496;DHT22;9888;48.606;9.630;2022-11-11T06:46:32;1.40;99.90
19496;DHT22;9888;48.606;9.630;2022-11-11T06:49:09;1.40;99.90
19496;DHT22;9888;48.606;9.630;2022-11-11T06:51:36;1.50;99.90
19496;DHT22;9888;48.606;9.630;2022-11-11T06:54:05;1.60;99.90
19496;DHT22;9888;48.606;9.630;2022-11-11T06:56:33;1.70;99.90
19496;DHT22;9888;48.606;9.630;2022-11-11T06:59:00;1.70;99.90
19496;DHT22;9888;48.606;9.630;2022-11-11T07:01:28;1.80;99.90
19496;DHT22;9888;48.606;9.630;2022-11-11T07:03:56;2.00;99.90
19496;DHT22;9888;48.606;9.630;2022-11-11T07:06:23;2.10;99.90
19496;DHT22;9888;48.606;9.630;2022-11-11T07:09:10;2.20;99.90
19496;DHT22;9888;48.606;9.630;2022-11-11T07:11:37;2.30;99.90
19496;DHT22;9888;48.606;9.630;2022-11-11T07:14:06;2.30;99.90
19496;DHT22;9888;48.606;9.630;2022-11-11T07:16:33;2.40;99.90
19496;DHT22;9888;48.606;9.630;2022-11-11T07:19:01;2.50;99.90
19496;DHT22;9888;48.606;9.630;2022-11-11T07:21:30;2.70;99.90
19496;DHT22;9888;48.606;9.630;2022-11-11T07:23:57;2.90;99.90
19496;DHT22;9888;48.606;9.630;2022-11-11T07:26:25;3.20;99.90
19496;DHT22;9888;48.606;9.630;2022-11-11T07:28:53;3.30;99.90
19496;DHT22;9888;48.606;9.630;2022-11-11T07:31:21;3.50;99.90
19496;DHT22;9888;48.606;9.630;2022-11-11T07:33:53;3.70;99.90
19496;DHT22;9888;48.606;9.630;2022-11-11T07:36:25;3.80;99.90
19496;DHT22;9888;48.606;9.630;2022-11-11T07:38:53;3.90;99.90
19496;DHT22;9888;48.606;9.630;2022-11-11T07:41:20;4.00;99.90
19496;DHT22;9888;48.606;9.630;2022-11-11T07:43:48;4.20;99.90
19496;DHT22;9888;48.606;9.630;2022-11-11T07:46:17;4.40;99.90
19496;DHT22;9888;48.606;9.630;2022-11-11T07:48:45;4.50;99.90
19496;DHT22;9888;48.606;9.630;2022-11-11T07:51:16;4.80;99.90
19496;DHT22;9888;48.606;9.630;2022-11-11T07:53:45;5.00;99.90
19496;DHT22;9888;48.606;9.630;2022-11-11T07:56:13;5.20;99.90
19496;DHT22;9888;48.606;9.630;2022-11-11T07:58:41;5.40;99.90
19496;DHT22;9888;48.606;9.630;2022-11-11T08:01:11;5.70;99.90
19496;DHT22;9888;48.606;9.630;2022-11-11T08:03:39;6.00;99.90
19496;DHT22;9888;48.606;9.630;2022-11-11T08:06:19;6.50;99.90
19496;DHT22;9888;48.606;9.630;2022-11-11T08:08:50;6.90;99.90
19496;DHT22;9888;48.606;9.630;2022-11-11T08:11:17;7.10;99.90
19496;DHT22;9888;48.606;9.630;2022-11-11T08:14:05;7.50;99.90
19496;DHT22;9888;48.606;9.630;2022-11-11T08:16:33;8.10;99.90
19496;DHT22;9888;48.606;9.630;2022-11-11T08:19:01;8.90;99.90
19496;DHT22;9888;48.606;9.630;2022-11-11T08:21:28;9.70;99.90
19496;DHT22;9888;48.606;9.630;2022-11-11T08:23:57;10.50;99.90
19496;DHT22;9888;48.606;9.630;2022-11-11T08:26:27;11.20;99.90
19496;DHT22;9888;48.606;9.630;2022-11-11T08:28:57;11.70;99.90
19496;DHT22;9888;48.606;9.630;2022-11-11T08:31:25;12.50;99.90
19496;DHT22;9888;48.606;9.630;2022-11-11T08:33:51;12.80;99.90
19496;DHT22;9888;48.606;9.630;2022-11-11T08:36:21;13.20;99.90
19496;DHT22;9888;48.606;9.630;2022-11-11T08:38:49;13.60;99.90
19496;DHT22;9888;48.606;9.630;2022-11-11T08:41:16;14.00;99.90
19496;DHT22;9888;48.606;9.630;2022-11-11T08:43:44;14.30;99.90
19496;DHT22;9888;48.606;9.630;2022-11-11T08:46:13;14.50;99.90
19496;DHT22;9888;48.606;9.630;2022-11-11T08:48:41;14.90;99.90
19496;DHT22;9888;48.606;9.630;2022-11-11T08:51:08;15.10;99.90
19496;DHT22;9888;48.606;9.630;2022-11-11T08:53:36;15.00;99.90
19496;DHT22;9888;48.606;9.630;2022-11-11T08:56:03;14.70;99.90
19496;DHT22;9888;48.606;9.630;2022-11-11T08:58:31;14.70;99.90
19496;DHT22;9888;48.606;9.630;2022-11-11T09:00:59;15.40;99.90
19496;DHT22;9888;48.606;9.630;2022-11-11T09:03:27;16.20;99.90
19496;DHT22;9888;48.606;9.630;2022-11-11T09:05:56;16.90;99.90
19496;DHT22;9888;48.606;9.630;2022-11-11T09:08:23;17.60;99.90
19496;DHT22;9888;48.606;9.630;2022-11-11T09:10:50;18.30;99.90
19496;DHT22;9888;48.606;9.630;2022-11-11T09:13:19;19.10;99.90
19496;DHT22;9888;48.606;9.630;2022-11-11T09:15:46;20.10;99.90
19496;DHT22;9888;48.606;9.630;2022-11-11T09:18:13;20.70;99.90
19496;DHT22;9888;48.606;9.630;2022-11-11T09:20:40;21.30;99.90
19496;DHT22;9888;48.606;9.630;2022-11-11T09:23:08;22.50;99.90
19496;DHT22;9888;48.606;9.630;2022-11-11T09:25:37;23.30;99.90
19496;DHT22;9888;48.606;9.630;2022-11-11T09:28:06;24.00;99.90
19496;DHT22;9888;48.606;9.630;2022-11-11T09:30:34;24.80;99.90
19496;DHT22;9888;48.606;9.630;2022-11-11T09:33:03;25.40;99.90
19496;DHT22;9888;48.606;9.630;2022-11-11T09:35:30;26.10;99.90
19496;DHT22;9888;48.606;9.630;2022-11-11T09:37:59;26.40;99.90
19496;DHT22;9888;48.606;9.630;2022-11-11T09:40:42;27.40;99.90
19496;DHT22;9888;48.606;9.630;2022-11-11T09:43:34;27.90;99.90
19496;DHT22;9888;48.606;9.630;2022-11-11T09:52:13;28.40;99.90
19496;DHT22;9888;48.606;9.630;2022-11-11T09:55:11;28.80;99.90
19496;DHT22;9888;48.606;9.630;2022-11-11T09:57:52;28.80;99.90
19496;DHT22;9888;48.606;9.630;2022-11-11T10:00:59;29.20;99.90
19496;DHT22;9888;48.606;9.630;2022-11-11T10:03:29;29.70;99.90
19496;DHT22;9888;48.606;9.630;2022-11-11T10:06:21;29.00;99.90
19496;DHT22;9888;48.606;9.630;2022-11-11T10:08:57;28.00;99.90
19496;DHT22;9888;48.606;9.630;2022-11-11T10:14:11;25.00;99.90
19496;DHT22;9888;48.606;9.630;2022-11-11T10:22:38;24.10;99.90
19496;DHT22;9888;48.606;9.630;2022-11-11T10:27:43;25.80;99.90
19496;DHT22;9888;48.606;9.630;2022-11-11T10:30:17;25.90;99.90
19496;DHT22;9888;48.606;9.630;2022-11-11T10:33:32;25.60;99.90
19496;DHT22;9888;48.606;9.630;2022-11-11T10:35:34;25.40;99.90
19496;DHT22;9888;48.606;9.630;2022-11-11T10:38:18;25.40;99.90
19496;DHT22;9888;48.606;9.630;2022-11-11T10:40:53;24.80;99.90
19496;DHT22;9888;48.606;9.630;2022-11-11T10:43:26;25.40;99.90
19496;DHT22;9888;48.606;9.630;2022-11-11T10:51:30;25.00;99.90
19496;DHT22;9888;48.606;9.630;2022-11-11T10:54:11;25.00;99.90
19496;DHT22;9888;48.606;9.630;2022-11-11T10:59:38;26.40;99.90
19496;DHT22;9888;48.606;9.630;2022-11-11T11:02:47;26.90;99.90
19496;DHT22;9888;48.606;9.630;2022-11-11T11:05:39;26.90;99.90
19496;DHT22;9888;48.606;9.630;2022-11-11T11:08:18;26.20;99.90
19496;DHT22;9888;48.606;9.630;2022-11-11T11:10:56;25.50;99.90
19496;DHT22;9888;48.606;9.630;2022-11-11T11:13:35;25.60;99.90
19496;DHT22;9888;48.606;9.630;2022-11-11T11:16:16;25.20;99.90
19496;DHT22;9888;48.606;9.630;2022-11-11T11:19:02;24.20;99.90
19496;DHT22;9888;48.606;9.630;2022-11-11T11:21:54;24.00;99.90
19496;DHT22;9888;48.606;9.630;2022-11-11T11:24:27;24.10;99.90
19496;DHT22;9888;48.606;9.630;2022-11-11T11:26:57;24.20;99.90
19496;DHT22;9888;48.606;9.630;2022-11-11T11:29:41;24.70;99.90
19496;DHT22;9888;48.606;9.630;2022-11-11T11:32:27;24.30;99.90
19496;DHT22;9888;48.606;9.630;2022-11-11T11:34:55;24.40;99.90
19496;DHT22;9888;48.606;9.630;2022-11-11T11:37:24;25.20;99.90
19496;DHT22;9888;48.606;9.630;2022-11-11T11:40:05;26.00;99.90
19496;DHT22;9888;48.606;9.630;2022-11-11T11:42:37;27.40;99.90
19496;DHT22;9888;48.606;9.630;2022-11-11T11:45:21;28.00;99.90
19496;DHT22;9888;48.606;9.630;2022-11-11T11:51:05;29.30;99.90
19496;DHT22;9888;48.606;9.630;2022-11-11T11:56:38;28.30;97.60
19496;DHT22;9888;48.606;9.630;2022-11-11T11:59:31;27.60;99.90
19496;DHT22;9888;48.606;9.630;2022-11-11T12:11:00;26.70;99.00
19496;DHT22;9888;48.606;9.630;2022-11-11T12:17:03;26.40;99.90
19496;DHT22;9888;48.606;9.630;2022-11-11T12:20:03;26.10;99.90
19496;DHT22;9888;48.606;9.630;2022-11-11T12:25:49;24.70;99.90
19496;DHT22;9888;48.606;9.630;2022-11-11T12:31:12;23.90;99.90
19496;DHT22;9888;48.606;9.630;2022-11-11T12:36:47;23.10;99.90
19496;DHT22;9888;48.606;9.630;2022-11-11T12:39:31;23.30;99.90
19496;DHT22;9888;48.606;9.630;2022-11-11T12:44:57;23.50;99.90
19496;DHT22;9888;48.606;9.630;2022-11-11T12:53:10;25.60;99.90
19496;DHT22;9888;48.606;9.630;2022-11-11T13:01:30;25.30;99.90
19496;DHT22;9888;48.606;9.630;2022-11-11T13:15:21;25.50;97.60
19496;DHT22;9888;48.606;9.630;2022-11-11T13:17:49;25.30;98.30
19496;DHT22;9888;48.606;9.630;2022-11-11T13:23:17;23.70;99.70
19496;DHT22;9888;48.606;9.630;2022-11-11T13:25:46;22.60;99.90
19496;DHT22;9888;48.606;9.630;2022-11-11T13:28:46;21.90;99.90
19496;DHT22;9888;48.606;9.630;2022-11-11T13:31:17;21.00;99.90
19496;DHT22;9888;48.606;9.630;2022-11-11T13:33:52;20.40;99.90
19496;DHT22;9888;48.606;9.630;2022-11-11T13:36:26;19.80;99.90
19496;DHT22;9888;48.606;9.630;2022-11-11T13:39:02;19.40;99.90
19496;DHT22;9888;48.606;9.630;2022-11-11T13:41:32;19.10;99.90
19496;DHT22;9888;48.606;9.630;2022-11-11T13:44:03;18.70;99.90
19496;DHT22;9888;48.606;9.630;2022-11-11T13:46:43;18.60;99.90
19496;DHT22;9888;48.606;9.630;2022-11-11T13:49:24;18.40;99.90
19496;DHT22;9888;48.606;9.630;2022-11-11T13:52:04;18.20;99.90
19496;DHT22;9888;48.606;9.630;2022-11-11T13:54:49;18.00;99.90
19496;DHT22;9888;48.606;9.630;2022-11-11T13:57:21;17.90;99.90
19496;DHT22;9888;48.606;9.630;2022-11-11T14:00:06;17.70;99.90
19496;DHT22;9888;48.606;9.630;2022-11-11T14:05:40;17.30;99.90
19496;DHT22;9888;48.606;9.630;2022-11-11T14:08:10;17.10;99.90
19496;DHT22;9888;48.606;9.630;2022-11-11T14:10:58;17.00;99.90
19496;DHT22;9888;48.606;9.630;2022-11-11T14:15:57;16.80;99.90
19496;DHT22;9888;48.606;9.630;2022-11-11T14:20:52;16.50;99.90
19496;DHT22;9888;48.606;9.630;2022-11-11T14:23:41;16.50;99.90
19496;DHT22;9888;48.606;9.630;2022-11-11T14:31:55;16.20;99.90
19496;DHT22;9888;48.606;9.630;2022-11-11T14:34:36;16.10;99.90
19496;DHT22;9888;48.606;9.630;2022-11-11T14:37:29;16.00;99.90
19496;DHT22;9888;48.606;9.630;2022-11-11T14:40:01;15.70;99.90
19496;DHT22;9888;48.606;9.630;2022-11-11T14:47:58;14.80;99.90
19496;DHT22;9888;48.606;9.630;2022-11-11T14:53:19;14.20;99.90
19496;DHT22;9888;48.606;9.630;2022-11-11T14:55:53;13.90;99.90
19496;DHT22;9888;48.606;9.630;2022-11-11T14:58:23;13.50;99.90
19496;DHT22;9888;48.606;9.630;2022-11-11T15:01:13;13.20;99.90
19496;DHT22;9888;48.606;9.630;2022-11-11T15:03:51;12.90;99.90
19496;DHT22;9888;48.606;9.630;2022-11-11T15:09:30;12.20;99.90
19496;DHT22;9888;48.606;9.630;2022-11-11T15:12:39;11.90;99.90
19496;DHT22;9888;48.606;9.630;2022-11-11T15:15:14;11.30;99.90
19496;DHT22;9888;48.606;9.630;2022-11-11T15:21:06;10.60;99.90
19496;DHT22;9888;48.606;9.630;2022-11-11T15:34:55;9.30;99.90
19496;DHT22;9888;48.606;9.630;2022-11-11T15:37:25;9.20;99.90
19496;DHT22;9888;48.606;9.630;2022-11-11T15:39:56;9.00;99.90
19496;DHT22;9888;48.606;9.630;2022-11-11T15:42:33;8.80;99.90
19496;DHT22;9888;48.606;9.630;2022-11-11T15:45:13;8.70;99.90
19496;DHT22;9888;48.606;9.630;2022-11-11T15:47:48;8.50;99.90
19496;DHT22;9888;48.606;9.630;2022-11-11T15:50:32;8.40;99.90
19496;DHT22;9888;48.606;9.630;2022-11-11T15:53:27;8.20;99.90
19496;DHT22;9888;48.606;9.630;2022-11-11T15:55:56;8.10;99.90
19496;DHT22;9888;48.606;9.630;2022-11-11T15:58:30;7.90;99.90
19496;DHT22;9888;48.606;9.630;2022-11-11T16:01:00;7.80;99.90
19496;DHT22;9888;48.606;9.630;2022-11-11T16:03:38;7.70;99.90
19496;DHT22;9888;48.606;9.630;2022-11-11T16:06:14;7.60;99.90
19496;DHT22;9888;48.606;9.630;2022-11-11T16:08:51;7.50;99.90
19496;DHT22;9888;48.606;9.630;2022-11-11T16:11:20;7.40;99.90
19496;DHT22;9888;48.606;9.630;2022-11-11T16:14:01;7.30;99.90
19496;DHT22;9888;48.606;9.630;2022-11-11T16:16:37;7.10;99.90
19496;DHT22;9888;48.606;9.630;2022-11-11T16:19:32;7.00;99.90
19496;DHT22;9888;48.606;9.630;2022-11-11T16:22:07;6.90;99.90
19496;DHT22;9888;48.606;9.630;2022-11-11T16:24:40;6.80;99.90
19496;DHT22;9888;48.606;9.630;2022-11-11T16:27:21;6.70;99.90
19496;DHT22;9888;48.606;9.630;2022-11-11T16:29:51;6.60;99.90
19496;DHT22;9888;48.606;9.630;2022-11-11T16:34:54;6.40;99.90
19496;DHT22;9888;48.606;9.630;2022-11-11T16:37:22;6.30;99.90
19496;DHT22;9888;48.606;9.630;2022-11-11T16:39:49;6.20;99.90
19496;DHT22;9888;48.606;9.630;2022-11-11T16:42:24;6.10;99.90
19496;DHT22;9888;48.606;9.630;2022-11-11T16:45:03;6.10;99.90
19496;DHT22;9888;48.606;9.630;2022-11-11T16:47:41;6.10;99.90
19496;DHT22;9888;48.606;9.630;2022-11-11T16:50:16;6.00;99.90
19496;DHT22;9888;48.606;9.630;2022-11-11T16:52:47;5.90;99.90
19496;DHT22;9888;48.606;9.630;2022-11-11T16:55:45;5.90;99.90
19496;DHT22;9888;48.606;9.630;2022-11-11T16:58:18;5.90;99.90
19496;DHT22;9888;48.606;9.630;2022-11-11T17:00:46;5.80;99.90
19496;DHT22;9888;48.606;9.630;2022-11-11T17:03:16;5.80;99.90
19496;DHT22;9888;48.606;9.630;2022-11-11T17:06:03;5.80;99.90
19496;DHT22;9888;48.606;9.630;2022-11-11T17:08:41;5.70;99.90
19496;DHT22;9888;48.606;9.630;2022-11-11T17:11:41;5.50;99.90
19496;DHT22;9888;48.606;9.630;2022-11-11T17:14:08;5.40;99.90
19496;DHT22;9888;48.606;9.630;2022-11-11T17:16:36;5.40;99.90
19496;DHT22;9888;48.606;9.630;2022-11-11T17:19:04;5.40;99.90
19496;DHT22;9888;48.606;9.630;2022-11-11T17:21:31;5.40;99.90
19496;DHT22;9888;48.606;9.630;2022-11-11T17:23:59;5.60;99.90
19496;DHT22;9888;48.606;9.630;2022-11-11T17:26:26;5.50;99.90
19496;DHT22;9888;48.606;9.630;2022-11-11T17:29:13;5.50;99.90
19496;DHT22;9888;48.606;9.630;2022-11-11T17:31:41;5.40;99.90
19496;DHT22;9888;48.606;9.630;2022-11-11T17:34:09;5.50;99.90
19496;DHT22;9888;48.606;9.630;2022-11-11T17:36:36;5.50;99.90
19496;DHT22;9888;48.606;9.630;2022-11-11T17:39:04;5.40;99.90
19496;DHT22;9888;48.606;9.630;2022-11-11T17:41:31;5.50;99.90
19496;DHT22;9888;48.606;9.630;2022-11-11T17:43:58;5.60;99.90
19496;DHT22;9888;48.606;9.630;2022-11-11T17:46:26;5.90;99.90
19496;DHT22;9888;48.606;9.630;2022-11-11T17:48:54;6.00;99.90
19496;DHT22;9888;48.606;9.630;2022-11-11T17:51:22;6.00;99.90
19496;DHT22;9888;48.606;9.630;2022-11-11T17:53:52;6.00;99.90
19496;DHT22;9888;48.606;9.630;2022-11-11T17:56:20;6.10;99.90
19496;DHT22;9888;48.606;9.630;2022-11-11T17:58:46;6.10;99.90
19496;DHT22;9888;48.606;9.630;2022-11-11T18:01:14;6.00;99.90
19496;DHT22;9888;48.606;9.630;2022-11-11T18:03:42;5.90;99.90
19496;DHT22;9888;48.606;9.630;2022-11-11T18:06:10;5.80;99.90
19496;DHT22;9888;48.606;9.630;2022-11-11T18:08:37;5.70;99.90
19496;DHT22;9888;48.606;9.630;2022-11-11T18:11:07;5.60;99.90
19496;DHT22;9888;48.606;9.630;2022-11-11T18:13:35;5.50;99.90
19496;DHT22;9888;48.606;9.630;2022-11-11T18:16:02;5.40;99.90
19496;DHT22;9888;48.606;9.630;2022-11-11T18:18:30;5.30;99.90
19496;DHT22;9888;48.606;9.630;2022-11-11T18:21:03;5.30;99.90
19496;DHT22;9888;48.606;9.630;2022-11-11T18:23:32;5.20;99.90
19496;DHT22;9888;48.606;9.630;2022-11-11T18:25:59;5.20;99.90
19496;DHT22;9888;48.606;9.630;2022-11-11T18:28:35;5.10;99.90
19496;DHT22;9888;48.606;9.630;2022-11-11T18:31:09;5.20;99.90
19496;DHT22;9888;48.606;9.630;2022-11-11T18:33:37;5.10;99.90
19496;DHT22;9888;48.606;9.630;2022-11-11T18:36:12;5.10;99.90
19496;DHT22;9888;48.606;9.630;2022-11-11T18:38:40;5.00;99.90
19496;DHT22;9888;48.606;9.630;2022-11-11T18:41:16;4.90;99.90
19496;DHT22;9888;48.606;9.630;2022-11-11T18:43:46;4.90;99.90
19496;DHT22;9888;48.606;9.630;2022-11-11T18:46:24;4.90;99.90
19496;DHT22;9888;48.606;9.630;2022-11-11T18:48:58;4.80;99.90
19496;DHT22;9888;48.606;9.630;2022-11-11T18:51:26;4.60;99.90
19496;DHT22;9888;48.606;9.630;2022-11-11T18:53:54;4.50;99.90